sensor_id;sensor_type;location;lat;lon;timestamp;pressure;altitude;pressure_sealevel;temperature;humidity
79707;BME280;69200;53.612;-2.416;2023-09-30T00:01:45;100692.66;;;9.91;98.75
79707;BME280;69200;53.612;-2.416;2023-09-30T00:04:11;100680.63;;;10.18;99.04
79707;BME280;69200;53.612;-2.416;2023-09-30T00:06:36;100666.84;;;10.26;99.89
79707;BME280;69200;53.612;-2.416;2023-09-30T00:09:02;100673.84;;;10.41;99.85
79707;BME280;69200;53.612;-2.416;2023-09-30T00:11:28;100677.09;;;10.56;100.00
79707;BME280;69200;53.612;-2.416;2023-09-30T00:13:53;100691.41;;;10.70;100.00
79707;BME280;69200;53.612;-2.416;2023-09-30T00:16:19;100696.31;;;10.79;98.86
79707;BME280;69200;53.612;-2.416;2023-09-30T00:18:44;100699.53;;;10.95;96.91
79707;BME280;69200;53.612;-2.416;2023-09-30T00:21:10;100701.97;;;10.78;96.15
79707;BME280;69200;53.612;-2.416;2023-09-30T00:23:36;100708.16;;;10.60;95.18
79707;BME280;69200;53.612;-2.416;2023-09-30T00:26:01;100701.09;;;10.59;95.58
79707;BME280;69200;53.612;-2.416;2023-09-30T00:28:27;100698.84;;;10.49;96.63
79707;BME280;69200;53.612;-2.416;2023-09-30T00:30:53;100709.41;;;10.26;96.27
79707;BME280;69200;53.612;-2.416;2023-09-30T00:33:19;100703.59;;;10.16;96.96
79707;BME280;69200;53.612;-2.416;2023-09-30T00:35:44;100708.69;;;9.99;98.07
79707;BME280;69200;53.612;-2.416;2023-09-30T00:38:10;100709.31;;;9.94;98.56
79707;BME280;69200;53.612;-2.416;2023-09-30T00:40:35;100709.94;;;10.03;98.76
79707;BME280;69200;53.612;-2.416;2023-09-30T00:43:01;100703.34;;;10.30;98.64
79707;BME280;69200;53.612;-2.416;2023-09-30T00:45:27;100697.31;;;10.28;97.50
79707;BME280;69200;53.612;-2.416;2023-09-30T00:47:53;100705.25;;;10.23;97.81
79707;BME280;69200;53.612;-2.416;2023-09-30T00:50:21;100683.59;;;10.10;97.83
79707;BME280;69200;53.612;-2.416;2023-09-30T00:52:48;100692.94;;;10.27;97.45
79707;BME280;69200;53.612;-2.416;2023-09-30T00:55:15;100696.78;;;10.45;96.50
79707;BME280;69200;53.612;-2.416;2023-09-30T00:57:41;100694.56;;;10.35;96.36
79707;BME280;69200;53.612;-2.416;2023-09-30T01:00:07;100704.31;;;10.43;95.84
79707;BME280;69200;53.612;-2.416;2023-09-30T01:02:38;100697.97;;;10.55;95.78
79707;BME280;69200;53.612;-2.416;2023-09-30T01:05:04;100695.66;;;10.59;95.35
79707;BME280;69200;53.612;-2.416;2023-09-30T01:07:30;100703.84;;;10.52;96.92
79707;BME280;69200;53.612;-2.416;2023-09-30T01:09:55;100694.47;;;10.73;96.42
79707;BME280;69200;53.612;-2.416;2023-09-30T01:12:21;100690.00;;;10.60;95.34
79707;BME280;69200;53.612;-2.416;2023-09-30T01:14:46;100693.81;;;10.53;95.10
79707;BME280;69200;53.612;-2.416;2023-09-30T01:17:12;100691.09;;;10.53;95.18
79707;BME280;69200;53.612;-2.416;2023-09-30T01:19:42;100692.94;;;10.27;96.37
79707;BME280;69200;53.612;-2.416;2023-09-30T01:22:08;100688.97;;;10.23;96.75
79707;BME280;69200;53.612;-2.416;2023-09-30T01:24:39;100687.56;;;10.07;97.81
79707;BME280;69200;53.612;-2.416;2023-09-30T01:27:05;100678.78;;;10.19;98.29
79707;BME280;69200;53.612;-2.416;2023-09-30T01:29:31;100684.25;;;10.05;97.82
79707;BME280;69200;53.612;-2.416;2023-09-30T01:31:56;100680.34;;;9.95;98.60
79707;BME280;69200;53.612;-2.416;2023-09-30T01:34:21;100677.44;;;9.90;98.98
79707;BME280;69200;53.612;-2.416;2023-09-30T01:36:48;100680.28;;;10.01;98.75
79707;BME280;69200;53.612;-2.416;2023-09-30T01:39:13;100680.03;;;10.09;98.06
79707;BME280;69200;53.612;-2.416;2023-09-30T01:41:40;100674.00;;;10.07;98.39
79707;BME280;69200;53.612;-2.416;2023-09-30T01:44:06;100668.19;;;10.11;97.89
79707;BME280;69200;53.612;-2.416;2023-09-30T01:46:31;100667.69;;;10.20;98.06
79707;BME280;69200;53.612;-2.416;2023-09-30T01:48:57;100667.94;;;10.50;100.00
79707;BME280;69200;53.612;-2.416;2023-09-30T01:51:22;100669.44;;;10.71;100.00
79707;BME280;69200;53.612;-2.416;2023-09-30T01:53:48;100681.47;;;10.82;99.66
79707;BME280;69200;53.612;-2.416;2023-09-30T01:56:14;100674.44;;;10.74;97.48
79707;BME280;69200;53.612;-2.416;2023-09-30T01:58:39;100678.03;;;10.93;98.25
79707;BME280;69200;53.612;-2.416;2023-09-30T02:01:05;100677.66;;;10.89;96.22
79707;BME280;69200;53.612;-2.416;2023-09-30T02:03:30;100677.59;;;10.96;95.98
79707;BME280;69200;53.612;-2.416;2023-09-30T02:05:57;100675.66;;;11.03;96.83
79707;BME280;69200;53.612;-2.416;2023-09-30T02:08:23;100679.16;;;10.85;93.98
79707;BME280;69200;53.612;-2.416;2023-09-30T02:10:48;100665.84;;;10.77;94.89
79707;BME280;69200;53.612;-2.416;2023-09-30T02:13:14;100664.66;;;10.67;94.52
79707;BME280;69200;53.612;-2.416;2023-09-30T02:15:43;100668.81;;;10.44;95.66
79707;BME280;69200;53.612;-2.416;2023-09-30T02:18:09;100670.88;;;10.49;97.96
79707;BME280;69200;53.612;-2.416;2023-09-30T02:20:35;100666.09;;;10.76;96.96
79707;BME280;69200;53.612;-2.416;2023-09-30T02:23:10;100657.88;;;11.07;93.82
79707;BME280;69200;53.612;-2.416;2023-09-30T02:25:41;100662.56;;;11.18;93.52
79707;BME280;69200;53.612;-2.416;2023-09-30T02:28:07;100670.22;;;11.03;93.28
79707;BME280;69200;53.612;-2.416;2023-09-30T02:30:32;100676.44;;;10.85;93.58
79707;BME280;69200;53.612;-2.416;2023-09-30T02:32:58;100672.41;;;10.70;95.08
79707;BME280;69200;53.612;-2.416;2023-09-30T02:35:23;100685.81;;;10.58;95.57
79707;BME280;69200;53.612;-2.416;2023-09-30T02:37:49;100679.56;;;10.57;97.06
79707;BME280;69200;53.612;-2.416;2023-09-30T02:40:15;100669.50;;;10.64;97.81
79707;BME280;69200;53.612;-2.416;2023-09-30T02:42:42;100677.03;;;10.62;96.94
79707;BME280;69200;53.612;-2.416;2023-09-30T02:45:09;100668.28;;;10.85;98.20
79707;BME280;69200;53.612;-2.416;2023-09-30T02:47:34;100662.78;;;11.17;96.13
79707;BME280;69200;53.612;-2.416;2023-09-30T02:50:00;100668.16;;;11.24;93.50
79707;BME280;69200;53.612;-2.416;2023-09-30T02:52:26;100661.63;;;11.06;95.03
79707;BME280;69200;53.612;-2.416;2023-09-30T02:54:53;100656.09;;;10.95;95.65
79707;BME280;69200;53.612;-2.416;2023-09-30T02:57:19;100647.06;;;11.01;96.07
79707;BME280;69200;53.612;-2.416;2023-09-30T02:59:44;100644.00;;;10.90;96.69
79707;BME280;69200;53.612;-2.416;2023-09-30T03:02:10;100662.13;;;10.97;98.71
79707;BME280;69200;53.612;-2.416;2023-09-30T03:04:36;100658.53;;;10.78;96.90
79707;BME280;69200;53.612;-2.416;2023-09-30T03:07:02;100666.34;;;10.92;100.00
79707;BME280;69200;53.612;-2.416;2023-09-30T03:09:27;100658.63;;;10.89;100.00
79707;BME280;69200;53.612;-2.416;2023-09-30T03:11:53;100658.44;;;10.91;99.97
79707;BME280;69200;53.612;-2.416;2023-09-30T03:14:21;100653.63;;;10.93;97.91
79707;BME280;69200;53.612;-2.416;2023-09-30T03:16:47;100641.53;;;10.89;96.75
79707;BME280;69200;53.612;-2.416;2023-09-30T03:19:12;100635.22;;;10.70;96.68
79707;BME280;69200;53.612;-2.416;2023-09-30T03:21:38;100630.56;;;10.77;97.52
79707;BME280;69200;53.612;-2.416;2023-09-30T03:24:04;100623.31;;;10.71;98.77
79707;BME280;69200;53.612;-2.416;2023-09-30T03:26:30;100631.06;;;10.68;99.09
79707;BME280;69200;53.612;-2.416;2023-09-30T03:28:55;100629.63;;;10.65;98.38
79707;BME280;69200;53.612;-2.416;2023-09-30T03:31:21;100635.97;;;10.59;96.99
79707;BME280;69200;53.612;-2.416;2023-09-30T03:33:51;100633.34;;;10.46;96.79
79707;BME280;69200;53.612;-2.416;2023-09-30T03:36:20;100630.38;;;10.47;98.31
79707;BME280;69200;53.612;-2.416;2023-09-30T03:38:45;100623.91;;;10.48;97.65
79707;BME280;69200;53.612;-2.416;2023-09-30T03:41:10;100619.22;;;10.37;97.86
79707;BME280;69200;53.612;-2.416;2023-09-30T03:43:38;100618.19;;;10.31;98.74
79707;BME280;69200;53.612;-2.416;2023-09-30T03:46:08;100611.75;;;10.26;98.68
79707;BME280;69200;53.612;-2.416;2023-09-30T03:48:34;100618.94;;;10.07;97.45
79707;BME280;69200;53.612;-2.416;2023-09-30T03:51:08;100611.16;;;9.86;98.62
79707;BME280;69200;53.612;-2.416;2023-09-30T03:53:34;100609.91;;;9.88;100.00
79707;BME280;69200;53.612;-2.416;2023-09-30T03:55:59;100618.59;;;9.97;100.00
79707;BME280;69200;53.612;-2.416;2023-09-30T03:58:25;100631.75;;;9.93;100.00
79707;BME280;69200;53.612;-2.416;2023-09-30T04:00:50;100631.41;;;9.76;99.09
79707;BME280;69200;53.612;-2.416;2023-09-30T04:03:16;100638.34;;;9.66;99.88
79707;BME280;69200;53.612;-2.416;2023-09-30T04:05:42;100653.78;;;9.65;100.00
79707;BME280;69200;53.612;-2.416;2023-09-30T04:08:07;100654.41;;;9.67;100.00
79707;BME280;69200;53.612;-2.416;2023-09-30T04:10:32;100658.28;;;9.85;100.00
79707;BME280;69200;53.612;-2.416;2023-09-30T04:12:58;100649.59;;;9.69;100.00
79707;BME280;69200;53.612;-2.416;2023-09-30T04:15:23;100654.41;;;9.67;100.00
79707;BME280;69200;53.612;-2.416;2023-09-30T04:17:49;100646.53;;;9.46;100.00
79707;BME280;69200;53.612;-2.416;2023-09-30T04:20:14;100650.34;;;9.32;100.00
79707;BME280;69200;53.612;-2.416;2023-09-30T04:22:48;100644.06;;;9.38;100.00
79707;BME280;69200;53.612;-2.416;2023-09-30T04:25:15;100648.00;;;9.55;100.00
79707;BME280;69200;53.612;-2.416;2023-09-30T04:27:42;100645.91;;;9.57;100.00
79707;BME280;69200;53.612;-2.416;2023-09-30T04:30:08;100644.63;;;9.60;100.00
79707;BME280;69200;53.612;-2.416;2023-09-30T04:32:36;100635.91;;;9.51;100.00
79707;BME280;69200;53.612;-2.416;2023-09-30T04:35:03;100628.97;;;9.68;100.00
79707;BME280;69200;53.612;-2.416;2023-09-30T04:37:28;100628.72;;;9.70;100.00
79707;BME280;69200;53.612;-2.416;2023-09-30T04:39:54;100623.53;;;9.68;100.00
79707;BME280;69200;53.612;-2.416;2023-09-30T04:42:19;100619.44;;;9.46;100.00
79707;BME280;69200;53.612;-2.416;2023-09-30T04:44:44;100616.38;;;9.29;100.00
79707;BME280;69200;53.612;-2.416;2023-09-30T04:47:10;100614.91;;;9.40;100.00
79707;BME280;69200;53.612;-2.416;2023-09-30T04:49:35;100603.34;;;9.64;100.00
79707;BME280;69200;53.612;-2.416;2023-09-30T04:52:01;100609.97;;;9.68;100.00
79707;BME280;69200;53.612;-2.416;2023-09-30T04:54:26;100603.72;;;9.74;100.00
79707;BME280;69200;53.612;-2.416;2023-09-30T04:56:51;100604.41;;;9.63;100.00
79707;BME280;69200;53.612;-2.416;2023-09-30T04:59:17;100615.47;;;9.55;100.00
79707;BME280;69200;53.612;-2.416;2023-09-30T05:01:42;100624.63;;;9.54;100.00
79707;BME280;69200;53.612;-2.416;2023-09-30T05:04:08;100629.66;;;9.50;100.00
79707;BME280;69200;53.612;-2.416;2023-09-30T05:06:33;100639.03;;;9.55;100.00
79707;BME280;69200;53.612;-2.416;2023-09-30T05:08:58;100643.06;;;9.39;100.00
79707;BME280;69200;53.612;-2.416;2023-09-30T05:11:25;100640.13;;;9.34;100.00
79707;BME280;69200;53.612;-2.416;2023-09-30T05:13:50;100640.69;;;9.56;100.00
79707;BME280;69200;53.612;-2.416;2023-09-30T05:16:17;100644.47;;;9.48;100.00
79707;BME280;69200;53.612;-2.416;2023-09-30T05:18:42;100643.19;;;9.57;100.00
79707;BME280;69200;53.612;-2.416;2023-09-30T05:21:08;100640.97;;;9.28;100.00
79707;BME280;69200;53.612;-2.416;2023-09-30T05:23:33;100636.63;;;9.20;100.00
79707;BME280;69200;53.612;-2.416;2023-09-30T05:25:59;100635.81;;;9.06;100.00
79707;BME280;69200;53.612;-2.416;2023-09-30T05:28:25;100630.00;;;8.89;100.00
79707;BME280;69200;53.612;-2.416;2023-09-30T05:30:52;100633.75;;;8.95;100.00
79707;BME280;69200;53.612;-2.416;2023-09-30T05:33:18;100636.25;;;8.90;100.00
79707;BME280;69200;53.612;-2.416;2023-09-30T05:35:43;100639.81;;;8.90;100.00
79707;BME280;69200;53.612;-2.416;2023-09-30T05:38:09;100637.50;;;9.01;100.00
79707;BME280;69200;53.612;-2.416;2023-09-30T05:40:36;100640.59;;;9.04;100.00
79707;BME280;69200;53.612;-2.416;2023-09-30T05:43:01;100632.53;;;8.91;100.00
79707;BME280;69200;53.612;-2.416;2023-09-30T05:45:28;100633.16;;;8.86;100.00
79707;BME280;69200;53.612;-2.416;2023-09-30T05:47:55;100636.25;;;8.90;100.00
79707;BME280;69200;53.612;-2.416;2023-09-30T05:50:23;100640.44;;;8.99;100.00
79707;BME280;69200;53.612;-2.416;2023-09-30T05:52:54;100643.31;;;9.11;100.00
79707;BME280;69200;53.612;-2.416;2023-09-30T05:55:20;100628.56;;;9.00;100.00
79707;BME280;69200;53.612;-2.416;2023-09-30T05:57:49;100620.22;;;8.95;100.00
79707;BME280;69200;53.612;-2.416;2023-09-30T06:00:15;100629.09;;;9.22;100.00
79707;BME280;69200;53.612;-2.416;2023-09-30T06:02:55;100633.28;;;9.24;100.00
79707;BME280;69200;53.612;-2.416;2023-09-30T06:05:21;100633.97;;;9.00;100.00
79707;BME280;69200;53.612;-2.416;2023-09-30T06:07:51;100637.72;;;8.99;100.00
79707;BME280;69200;53.612;-2.416;2023-09-30T06:10:19;100639.78;;;8.97;100.00
79707;BME280;69200;53.612;-2.416;2023-09-30T06:12:46;100648.13;;;9.02;100.00
79707;BME280;69200;53.612;-2.416;2023-09-30T06:15:13;100664.75;;;9.25;100.00
79707;BME280;69200;53.612;-2.416;2023-09-30T06:17:38;100654.72;;;9.33;100.00
79707;BME280;69200;53.612;-2.416;2023-09-30T06:20:05;100648.25;;;9.40;100.00
79707;BME280;69200;53.612;-2.416;2023-09-30T06:22:41;100651.41;;;9.31;100.00
79707;BME280;69200;53.612;-2.416;2023-09-30T06:25:07;100656.19;;;9.29;100.00
79707;BME280;69200;53.612;-2.416;2023-09-30T06:27:32;100671.59;;;9.35;100.00
79707;BME280;69200;53.612;-2.416;2023-09-30T06:29:58;100679.47;;;9.56;100.00
79707;BME280;69200;53.612;-2.416;2023-09-30T06:32:23;100679.97;;;9.78;100.00
79707;BME280;69200;53.612;-2.416;2023-09-30T06:34:48;100683.91;;;9.95;100.00
79707;BME280;69200;53.612;-2.416;2023-09-30T06:37:14;100687.09;;;10.17;100.00
79707;BME280;69200;53.612;-2.416;2023-09-30T06:39:39;100682.81;;;10.03;100.00
79707;BME280;69200;53.612;-2.416;2023-09-30T06:42:04;100680.88;;;10.10;100.00
79707;BME280;69200;53.612;-2.416;2023-09-30T06:44:30;100687.72;;;10.19;100.00
79707;BME280;69200;53.612;-2.416;2023-09-30T06:46:56;100686.63;;;10.33;100.00
79707;BME280;69200;53.612;-2.416;2023-09-30T06:49:21;100689.78;;;10.30;99.11
79707;BME280;69200;53.612;-2.416;2023-09-30T06:51:47;100687.19;;;10.04;100.00
79707;BME280;69200;53.612;-2.416;2023-09-30T06:54:13;100690.00;;;9.77;100.00
79707;BME280;69200;53.612;-2.416;2023-09-30T06:56:38;100696.19;;;9.91;100.00
79707;BME280;69200;53.612;-2.416;2023-09-30T06:59:03;100694.53;;;9.90;100.00
79707;BME280;69200;53.612;-2.416;2023-09-30T07:01:29;100694.41;;;9.72;100.00
79707;BME280;69200;53.612;-2.416;2023-09-30T07:03:54;100696.19;;;9.98;100.00
79707;BME280;69200;53.612;-2.416;2023-09-30T07:06:26;100697.88;;;9.86;100.00
79707;BME280;69200;53.612;-2.416;2023-09-30T07:08:52;100689.16;;;9.84;100.00
79707;BME280;69200;53.612;-2.416;2023-09-30T07:11:29;100702.72;;;9.70;100.00
79707;BME280;69200;53.612;-2.416;2023-09-30T07:13:56;100702.72;;;9.77;100.00
79707;BME280;69200;53.612;-2.416;2023-09-30T07:16:21;100702.22;;;9.93;100.00
79707;BME280;69200;53.612;-2.416;2023-09-30T07:18:46;100700.50;;;10.12;100.00
79707;BME280;69200;53.612;-2.416;2023-09-30T07:21:13;100705.03;;;10.18;100.00
79707;BME280;69200;53.612;-2.416;2023-09-30T07:23:38;100699.16;;;9.83;100.00
79707;BME280;69200;53.612;-2.416;2023-09-30T07:26:04;100701.41;;;9.93;100.00
79707;BME280;69200;53.612;-2.416;2023-09-30T07:28:29;100711.84;;;9.89;100.00
79707;BME280;69200;53.612;-2.416;2023-09-30T07:30:55;100720.16;;;9.94;100.00
79707;BME280;69200;53.612;-2.416;2023-09-30T07:33:20;100715.41;;;9.90;100.00
79707;BME280;69200;53.612;-2.416;2023-09-30T07:35:46;100703.72;;;9.89;100.00
79707;BME280;69200;53.612;-2.416;2023-09-30T07:38:11;100705.38;;;9.97;100.00
79707;BME280;69200;53.612;-2.416;2023-09-30T07:40:37;100708.63;;;10.12;100.00
79707;BME280;69200;53.612;-2.416;2023-09-30T07:43:02;100708.59;;;10.19;100.00
79707;BME280;69200;53.612;-2.416;2023-09-30T07:45:28;100712.56;;;10.16;100.00
79707;BME280;69200;53.612;-2.416;2023-09-30T07:47:53;100706.91;;;10.18;100.00
79707;BME280;69200;53.612;-2.416;2023-09-30T07:50:19;100706.84;;;10.38;100.00
79707;BME280;69200;53.612;-2.416;2023-09-30T07:52:45;100702.63;;;10.42;100.00
79707;BME280;69200;53.612;-2.416;2023-09-30T07:55:11;100693.78;;;10.59;100.00
79707;BME280;69200;53.612;-2.416;2023-09-30T07:57:37;100684.09;;;10.95;98.93
79707;BME280;69200;53.612;-2.416;2023-09-30T08:00:03;100693.44;;;11.42;96.29
79707;BME280;69200;53.612;-2.416;2023-09-30T08:02:34;100692.03;;;11.40;95.03
79707;BME280;69200;53.612;-2.416;2023-09-30T08:04:59;100695.38;;;11.17;95.95
79707;BME280;69200;53.612;-2.416;2023-09-30T08:07:26;100697.66;;;11.38;96.15
79707;BME280;69200;53.612;-2.416;2023-09-30T08:09:51;100713.13;;;11.81;95.55
79707;BME280;69200;53.612;-2.416;2023-09-30T08:12:16;100713.25;;;11.86;94.08
79707;BME280;69200;53.612;-2.416;2023-09-30T08:14:42;100712.34;;;11.92;93.77
79707;BME280;69200;53.612;-2.416;2023-09-30T08:17:09;100709.34;;;11.82;93.11
79707;BME280;69200;53.612;-2.416;2023-09-30T08:19:35;100704.91;;;11.26;94.26
79707;BME280;69200;53.612;-2.416;2023-09-30T08:22:01;100711.47;;;11.37;95.20
79707;BME280;69200;53.612;-2.416;2023-09-30T08:24:31;100707.03;;;11.61;95.11
79707;BME280;69200;53.612;-2.416;2023-09-30T08:26:56;100704.91;;;11.63;94.35
79707;BME280;69200;53.612;-2.416;2023-09-30T08:29:22;100692.56;;;11.48;93.88
79707;BME280;69200;53.612;-2.416;2023-09-30T08:31:47;100694.81;;;11.52;94.47
79707;BME280;69200;53.612;-2.416;2023-09-30T08:34:13;100700.16;;;11.76;94.32
79707;BME280;69200;53.612;-2.416;2023-09-30T08:36:40;100700.72;;;11.67;93.68
79707;BME280;69200;53.612;-2.416;2023-09-30T08:39:05;100697.59;;;11.45;94.37
79707;BME280;69200;53.612;-2.416;2023-09-30T08:41:33;100698.59;;;11.32;95.46
79707;BME280;69200;53.612;-2.416;2023-09-30T08:44:03;100696.47;;;11.34;95.18
79707;BME280;69200;53.612;-2.416;2023-09-30T08:46:33;100696.91;;;11.31;95.55
79707;BME280;69200;53.612;-2.416;2023-09-30T08:49:02;100689.91;;;11.42;95.48
79707;BME280;69200;53.612;-2.416;2023-09-30T08:51:29;100679.56;;;11.51;94.83
79707;BME280;69200;53.612;-2.416;2023-09-30T08:53:55;100678.63;;;11.38;94.73
79707;BME280;69200;53.612;-2.416;2023-09-30T08:56:27;100688.66;;;11.81;93.17
79707;BME280;69200;53.612;-2.416;2023-09-30T08:59:03;100671.56;;;11.56;94.06
79707;BME280;69200;53.612;-2.416;2023-09-30T09:01:30;100673.75;;;11.65;93.63
79707;BME280;69200;53.612;-2.416;2023-09-30T09:03:57;100689.72;;;11.80;93.39
79707;BME280;69200;53.612;-2.416;2023-09-30T09:06:23;100693.63;;;11.84;92.33
79707;BME280;69200;53.612;-2.416;2023-09-30T09:08:49;100701.19;;;11.82;91.84
79707;BME280;69200;53.612;-2.416;2023-09-30T09:11:15;100694.84;;;11.88;93.24
79707;BME280;69200;53.612;-2.416;2023-09-30T09:13:51;100704.97;;;12.29;92.86
79707;BME280;69200;53.612;-2.416;2023-09-30T09:16:22;100710.78;;;12.33;90.68
79707;BME280;69200;53.612;-2.416;2023-09-30T09:18:48;100715.53;;;12.38;91.18
79707;BME280;69200;53.612;-2.416;2023-09-30T09:21:18;100715.84;;;12.59;90.73
79707;BME280;69200;53.612;-2.416;2023-09-30T09:23:46;100717.78;;;12.71;90.41
79707;BME280;69200;53.612;-2.416;2023-09-30T09:26:24;100716.13;;;12.70;89.22
79707;BME280;69200;53.612;-2.416;2023-09-30T09:28:49;100710.38;;;11.99;90.99
79707;BME280;69200;53.612;-2.416;2023-09-30T09:31:35;100710.75;;;12.03;91.34
79707;BME280;69200;53.612;-2.416;2023-09-30T09:34:04;100710.63;;;11.98;92.29
79707;BME280;69200;53.612;-2.416;2023-09-30T09:36:42;100713.94;;;12.00;91.92
79707;BME280;69200;53.612;-2.416;2023-09-30T09:39:08;100699.53;;;12.29;91.39
79707;BME280;69200;53.612;-2.416;2023-09-30T09:41:54;100687.94;;;12.34;90.81
79707;BME280;69200;53.612;-2.416;2023-09-30T09:44:23;100692.28;;;12.23;90.97
79707;BME280;69200;53.612;-2.416;2023-09-30T09:46:52;100683.47;;;12.10;91.26
79707;BME280;69200;53.612;-2.416;2023-09-30T09:49:19;100687.53;;;12.19;91.69
79707;BME280;69200;53.612;-2.416;2023-09-30T09:51:46;100688.00;;;12.57;90.68
79707;BME280;69200;53.612;-2.416;2023-09-30T09:54:12;100690.78;;;12.81;89.23
79707;BME280;69200;53.612;-2.416;2023-09-30T09:56:38;100685.63;;;12.49;89.93
79707;BME280;69200;53.612;-2.416;2023-09-30T09:59:04;100684.84;;;12.60;89.42
79707;BME280;69200;53.612;-2.416;2023-09-30T10:01:33;100681.97;;;12.55;89.71
79707;BME280;69200;53.612;-2.416;2023-09-30T10:04:00;100679.34;;;12.37;90.67
79707;BME280;69200;53.612;-2.416;2023-09-30T10:06:27;100686.84;;;12.65;90.36
79707;BME280;69200;53.612;-2.416;2023-09-30T10:08:54;100682.75;;;12.86;89.27
79707;BME280;69200;53.612;-2.416;2023-09-30T10:11:25;100681.34;;;12.83;89.33
79707;BME280;69200;53.612;-2.416;2023-09-30T10:13:54;100686.56;;;13.08;88.62
79707;BME280;69200;53.612;-2.416;2023-09-30T10:19:11;100678.88;;;13.29;88.63
79707;BME280;69200;53.612;-2.416;2023-09-30T10:21:36;100663.13;;;13.42;87.55
79707;BME280;69200;53.612;-2.416;2023-09-30T10:35:41;100662.78;;;13.79;86.19
79707;BME280;69200;53.612;-2.416;2023-09-30T10:40:49;100666.13;;;13.69;85.76
79707;BME280;69200;53.612;-2.416;2023-09-30T10:46:04;100639.66;;;13.30;87.11
79707;BME280;69200;53.612;-2.416;2023-09-30T10:48:34;100640.84;;;13.10;87.61
79707;BME280;69200;53.612;-2.416;2023-09-30T10:51:13;100630.28;;;12.91;88.77
79707;BME280;69200;53.612;-2.416;2023-09-30T10:53:43;100633.38;;;13.29;88.79
79707;BME280;69200;53.612;-2.416;2023-09-30T10:56:08;100625.47;;;13.68;87.33
79707;BME280;69200;53.612;-2.416;2023-09-30T11:01:13;100628.00;;;13.46;86.73
79707;BME280;69200;53.612;-2.416;2023-09-30T11:03:40;100624.44;;;13.57;86.98
79707;BME280;69200;53.612;-2.416;2023-09-30T11:06:06;100620.31;;;13.83;86.28
79707;BME280;69200;53.612;-2.416;2023-09-30T11:08:33;100613.03;;;14.17;84.67
79707;BME280;69200;53.612;-2.416;2023-09-30T11:10:58;100610.22;;;14.58;84.42
79707;BME280;69200;53.612;-2.416;2023-09-30T11:13:31;100610.59;;;14.33;83.25
79707;BME280;69200;53.612;-2.416;2023-09-30T11:16:03;100610.59;;;14.33;83.32
79707;BME280;69200;53.612;-2.416;2023-09-30T11:18:30;100606.22;;;14.32;83.76
79707;BME280;69200;53.612;-2.416;2023-09-30T11:21:10;100615.84;;;14.51;82.83
79707;BME280;69200;53.612;-2.416;2023-09-30T11:23:37;100609.78;;;14.32;83.74
79707;BME280;69200;53.612;-2.416;2023-09-30T11:26:02;100603.38;;;14.55;83.38
79707;BME280;69200;53.612;-2.416;2023-09-30T11:28:47;100601.03;;;14.47;83.32
79707;BME280;69200;53.612;-2.416;2023-09-30T11:31:12;100594.16;;;14.44;83.44
79707;BME280;69200;53.612;-2.416;2023-09-30T11:33:52;100602.53;;;14.54;83.99
79707;BME280;69200;53.612;-2.416;2023-09-30T11:36:22;100600.22;;;14.63;84.49
79707;BME280;69200;53.612;-2.416;2023-09-30T11:38:48;100599.28;;;14.41;83.35
79707;BME280;69200;53.612;-2.416;2023-09-30T11:41:15;100593.25;;;14.10;84.77
79707;BME280;69200;53.612;-2.416;2023-09-30T11:46:30;100599.50;;;14.68;84.39
79707;BME280;69200;53.612;-2.416;2023-09-30T11:49:01;100598.63;;;14.67;84.05
79707;BME280;69200;53.612;-2.416;2023-09-30T11:51:28;100609.38;;;14.91;84.00
79707;BME280;69200;53.612;-2.416;2023-09-30T11:53:55;100606.59;;;14.86;83.76
79707;BME280;69200;53.612;-2.416;2023-09-30T11:56:21;100597.88;;;14.89;84.04
79707;BME280;69200;53.612;-2.416;2023-09-30T11:58:53;100592.06;;;15.02;84.17
79707;BME280;69200;53.612;-2.416;2023-09-30T12:01:18;100593.38;;;14.99;82.97
79707;BME280;69200;53.612;-2.416;2023-09-30T12:03:44;100582.41;;;14.77;83.93
79707;BME280;69200;53.612;-2.416;2023-09-30T12:06:12;100581.00;;;14.58;84.69
79707;BME280;69200;53.612;-2.416;2023-09-30T12:08:39;100577.03;;;14.49;86.29
79707;BME280;69200;53.612;-2.416;2023-09-30T12:11:05;100583.16;;;14.56;85.45
79707;BME280;69200;53.612;-2.416;2023-09-30T12:13:30;100591.94;;;14.58;85.09
79707;BME280;69200;53.612;-2.416;2023-09-30T12:15:56;100581.19;;;14.68;84.61
79707;BME280;69200;53.612;-2.416;2023-09-30T12:18:22;100570.25;;;14.51;83.28
79707;BME280;69200;53.612;-2.416;2023-09-30T12:20:52;100571.81;;;14.64;85.06
79707;BME280;69200;53.612;-2.416;2023-09-30T12:23:18;100566.88;;;14.61;85.32
79707;BME280;69200;53.612;-2.416;2023-09-30T12:25:44;100571.97;;;14.74;84.78
79707;BME280;69200;53.612;-2.416;2023-09-30T12:28:09;100568.94;;;14.71;85.27
79707;BME280;69200;53.612;-2.416;2023-09-30T12:30:35;100568.34;;;14.69;85.31
79707;BME280;69200;53.612;-2.416;2023-09-30T12:33:00;100563.03;;;14.28;86.18
79707;BME280;69200;53.612;-2.416;2023-09-30T12:35:26;100563.78;;;14.41;87.09
79707;BME280;69200;53.612;-2.416;2023-09-30T12:37:52;100562.44;;;14.43;88.23
79707;BME280;69200;53.612;-2.416;2023-09-30T12:40:18;100562.31;;;14.50;87.78
79707;BME280;69200;53.612;-2.416;2023-09-30T12:42:44;100562.16;;;14.57;87.79
79707;BME280;69200;53.612;-2.416;2023-09-30T12:45:10;100553.34;;;14.71;87.30
79707;BME280;69200;53.612;-2.416;2023-09-30T12:47:36;100545.03;;;14.61;87.38
79707;BME280;69200;53.612;-2.416;2023-09-30T12:50:02;100537.56;;;14.57;87.35
79707;BME280;69200;53.612;-2.416;2023-09-30T12:52:28;100529.94;;;14.59;87.43
79707;BME280;69200;53.612;-2.416;2023-09-30T12:54:55;100521.59;;;14.48;87.73
79707;BME280;69200;53.612;-2.416;2023-09-30T12:57:21;100515.88;;;14.50;87.95
79707;BME280;69200;53.612;-2.416;2023-09-30T12:59:46;100519.13;;;14.47;88.64
79707;BME280;69200;53.612;-2.416;2023-09-30T13:02:14;100527.06;;;14.48;89.17
79707;BME280;69200;53.612;-2.416;2023-09-30T13:04:39;100523.06;;;14.22;89.94